sensor_id;sensor_type;location;lat;lon;timestamp;P1;durP1;ratioP1;P2;durP2;ratioP2
16308;SDS011;8263;48.880;9.276;2022-10-31T00:01:19;75.85;;;70.97;;
16308;SDS011;8263;48.880;9.276;2022-10-31T00:03:47;75.85;;;70.85;;
16308;SDS011;8263;48.880;9.276;2022-10-31T00:06:13;75.03;;;70.22;;
16308;SDS011;8263;48.880;9.276;2022-10-31T00:08:40;77.80;;;72.50;;
16308;SDS011;8263;48.880;9.276;2022-10-31T00:11:09;75.03;;;70.05;;
16308;SDS011;8263;48.880;9.276;2022-10-31T00:13:36;77.25;;;72.25;;
16308;SDS011;8263;48.880;9.276;2022-10-31T00:16:02;75.88;;;70.80;;
16308;SDS011;8263;48.880;9.276;2022-10-31T00:18:29;75.32;;;70.32;;
16308;SDS011;8263;48.880;9.276;2022-10-31T00:20:59;76.28;;;71.38;;
16308;SDS011;8263;48.880;9.276;2022-10-31T00:23:25;76.80;;;71.80;;
16308;SDS011;8263;48.880;9.276;2022-10-31T00:25:52;73.88;;;68.97;;
16308;SDS011;8263;48.880;9.276;2022-10-31T00:28:20;74.95;;;70.05;;
16308;SDS011;8263;48.880;9.276;2022-10-31T00:30:46;79.55;;;74.18;;
16308;SDS011;8263;48.880;9.276;2022-10-31T00:33:13;79.65;;;74.40;;
16308;SDS011;8263;48.880;9.276;2022-10-31T00:35:39;74.28;;;69.47;;
16308;SDS011;8263;48.880;9.276;2022-10-31T00:38:05;79.10;;;73.90;;
16308;SDS011;8263;48.880;9.276;2022-10-31T00:40:32;75.85;;;70.85;;
16308;SDS011;8263;48.880;9.276;2022-10-31T00:42:58;77.07;;;72.07;;
16308;SDS011;8263;48.880;9.276;2022-10-31T00:45:27;76.35;;;71.25;;
16308;SDS011;8263;48.880;9.276;2022-10-31T00:47:54;76.13;;;71.22;;
16308;SDS011;8263;48.880;9.276;2022-10-31T00:50:21;80.13;;;74.82;;
16308;SDS011;8263;48.880;9.276;2022-10-31T00:52:47;78.05;;;72.97;;
16308;SDS011;8263;48.880;9.276;2022-10-31T00:55:14;75.53;;;70.63;;
16308;SDS011;8263;48.880;9.276;2022-10-31T00:57:41;76.10;;;71.05;;
16308;SDS011;8263;48.880;9.276;2022-10-31T01:00:08;78.03;;;72.97;;
16308;SDS011;8263;48.880;9.276;2022-10-31T01:02:36;77.18;;;72.13;;
16308;SDS011;8263;48.880;9.276;2022-10-31T01:05:02;76.65;;;71.70;;
16308;SDS011;8263;48.880;9.276;2022-10-31T01:07:29;75.75;;;70.75;;
16308;SDS011;8263;48.880;9.276;2022-10-31T01:09:55;77.13;;;72.20;;
16308;SDS011;8263;48.880;9.276;2022-10-31T01:12:22;76.53;;;71.63;;
16308;SDS011;8263;48.880;9.276;2022-10-31T01:14:49;79.18;;;73.97;;
16308;SDS011;8263;48.880;9.276;2022-10-31T01:17:17;78.20;;;73.00;;
16308;SDS011;8263;48.880;9.276;2022-10-31T01:19:45;77.60;;;72.60;;
16308;SDS011;8263;48.880;9.276;2022-10-31T01:22:12;78.93;;;73.80;;
16308;SDS011;8263;48.880;9.276;2022-10-31T01:24:38;80.00;;;74.75;;
16308;SDS011;8263;48.880;9.276;2022-10-31T01:27:05;78.07;;;72.95;;
16308;SDS011;8263;48.880;9.276;2022-10-31T01:29:31;79.53;;;74.13;;
16308;SDS011;8263;48.880;9.276;2022-10-31T01:31:58;78.60;;;73.45;;
16308;SDS011;8263;48.880;9.276;2022-10-31T01:34:24;81.90;;;76.50;;
16308;SDS011;8263;48.880;9.276;2022-10-31T01:36:52;83.45;;;78.15;;
16308;SDS011;8263;48.880;9.276;2022-10-31T01:39:18;79.43;;;74.28;;
16308;SDS011;8263;48.880;9.276;2022-10-31T01:41:46;79.55;;;74.35;;
16308;SDS011;8263;48.880;9.276;2022-10-31T01:46:58;81.57;;;76.22;;
16308;SDS011;8263;48.880;9.276;2022-10-31T01:49:28;80.85;;;75.45;;
16308;SDS011;8263;48.880;9.276;2022-10-31T01:51:58;80.28;;;75.18;;
16308;SDS011;8263;48.880;9.276;2022-10-31T01:54:27;80.90;;;75.72;;
16308;SDS011;8263;48.880;9.276;2022-10-31T01:56:55;79.80;;;74.60;;
16308;SDS011;8263;48.880;9.276;2022-10-31T01:59:25;80.13;;;74.97;;
16308;SDS011;8263;48.880;9.276;2022-10-31T02:01:53;81.53;;;76.22;;
16308;SDS011;8263;48.880;9.276;2022-10-31T02:04:20;83.32;;;77.93;;
16308;SDS011;8263;48.880;9.276;2022-10-31T02:06:47;81.97;;;76.70;;
16308;SDS011;8263;48.880;9.276;2022-10-31T02:09:17;82.43;;;77.00;;
16308;SDS011;8263;48.880;9.276;2022-10-31T02:11:48;80.68;;;75.57;;
16308;SDS011;8263;48.880;9.276;2022-10-31T02:14:16;80.28;;;75.07;;
16308;SDS011;8263;48.880;9.276;2022-10-31T02:16:42;81.40;;;76.10;;
16308;SDS011;8263;48.880;9.276;2022-10-31T02:19:08;82.97;;;77.20;;
16308;SDS011;8263;48.880;9.276;2022-10-31T02:21:40;81.80;;;76.50;;
16308;SDS011;8263;48.880;9.276;2022-10-31T02:26:57;82.28;;;77.00;;
16308;SDS011;8263;48.880;9.276;2022-10-31T02:29:32;83.43;;;78.13;;
16308;SDS011;8263;48.880;9.276;2022-10-31T02:32:04;82.00;;;76.65;;
16308;SDS011;8263;48.880;9.276;2022-10-31T02:34:34;80.72;;;75.53;;
16308;SDS011;8263;48.880;9.276;2022-10-31T02:37:04;84.10;;;78.70;;
16308;SDS011;8263;48.880;9.276;2022-10-31T02:39:34;81.93;;;76.63;;
16308;SDS011;8263;48.880;9.276;2022-10-31T02:42:03;83.20;;;77.80;;
16308;SDS011;8263;48.880;9.276;2022-10-31T02:44:34;84.15;;;78.68;;
16308;SDS011;8263;48.880;9.276;2022-10-31T02:47:05;82.53;;;77.10;;
16308;SDS011;8263;48.880;9.276;2022-10-31T02:49:33;81.82;;;76.47;;
16308;SDS011;8263;48.880;9.276;2022-10-31T02:52:00;81.68;;;75.88;;
16308;SDS011;8263;48.880;9.276;2022-10-31T02:54:27;79.50;;;74.38;;
16308;SDS011;8263;48.880;9.276;2022-10-31T02:56:55;83.82;;;78.32;;
16308;SDS011;8263;48.880;9.276;2022-10-31T02:59:22;84.85;;;79.38;;
16308;SDS011;8263;48.880;9.276;2022-10-31T03:01:53;83.88;;;77.65;;
16308;SDS011;8263;48.880;9.276;2022-10-31T03:04:31;82.88;;;77.57;;
16308;SDS011;8263;48.880;9.276;2022-10-31T03:06:59;84.55;;;79.05;;
16308;SDS011;8263;48.880;9.276;2022-10-31T03:09:32;85.22;;;79.72;;
16308;SDS011;8263;48.880;9.276;2022-10-31T03:12:02;83.88;;;77.72;;
16308;SDS011;8263;48.880;9.276;2022-10-31T03:14:33;83.20;;;77.80;;
16308;SDS011;8263;48.880;9.276;2022-10-31T03:17:01;83.65;;;78.25;;
16308;SDS011;8263;48.880;9.276;2022-10-31T03:19:32;83.90;;;78.47;;
16308;SDS011;8263;48.880;9.276;2022-10-31T03:21:59;83.07;;;77.78;;
16308;SDS011;8263;48.880;9.276;2022-10-31T03:24:27;83.43;;;77.97;;
16308;SDS011;8263;48.880;9.276;2022-10-31T03:26:56;84.38;;;78.97;;
16308;SDS011;8263;48.880;9.276;2022-10-31T03:29:24;83.57;;;78.18;;
16308;SDS011;8263;48.880;9.276;2022-10-31T03:31:54;82.38;;;77.18;;
16308;SDS011;8263;48.880;9.276;2022-10-31T03:34:21;83.97;;;78.57;;
16308;SDS011;8263;48.880;9.276;2022-10-31T03:36:50;86.57;;;80.03;;
16308;SDS011;8263;48.880;9.276;2022-10-31T03:39:17;80.72;;;75.53;;
16308;SDS011;8263;48.880;9.276;2022-10-31T03:41:45;84.22;;;78.82;;
16308;SDS011;8263;48.880;9.276;2022-10-31T03:44:14;82.68;;;77.45;;
16308;SDS011;8263;48.880;9.276;2022-10-31T03:46:41;84.07;;;78.68;;
16308;SDS011;8263;48.880;9.276;2022-10-31T03:49:09;84.38;;;78.90;;
16308;SDS011;8263;48.880;9.276;2022-10-31T03:51:36;84.45;;;78.85;;
16308;SDS011;8263;48.880;9.276;2022-10-31T03:54:08;83.90;;;78.47;;
16308;SDS011;8263;48.880;9.276;2022-10-31T03:56:36;84.55;;;79.15;;
16308;SDS011;8263;48.880;9.276;2022-10-31T03:59:04;84.60;;;79.20;;
16308;SDS011;8263;48.880;9.276;2022-10-31T04:01:32;85.13;;;79.60;;
16308;SDS011;8263;48.880;9.276;2022-10-31T04:04:00;84.65;;;79.00;;
16308;SDS011;8263;48.880;9.276;2022-10-31T04:06:28;84.97;;;79.57;;
16308;SDS011;8263;48.880;9.276;2022-10-31T04:08:57;85.85;;;80.25;;
16308;SDS011;8263;48.880;9.276;2022-10-31T04:11:27;85.55;;;80.10;;
16308;SDS011;8263;48.880;9.276;2022-10-31T04:13:55;86.80;;;81.20;;
16308;SDS011;8263;48.880;9.276;2022-10-31T04:16:22;84.40;;;78.95;;
16308;SDS011;8263;48.880;9.276;2022-10-31T04:18:49;83.60;;;78.18;;
16308;SDS011;8263;48.880;9.276;2022-10-31T04:21:15;85.22;;;79.63;;
16308;SDS011;8263;48.880;9.276;2022-10-31T04:23:42;86.57;;;81.00;;
16308;SDS011;8263;48.880;9.276;2022-10-31T04:26:09;85.82;;;80.32;;
16308;SDS011;8263;48.880;9.276;2022-10-31T04:28:38;85.22;;;79.72;;
16308;SDS011;8263;48.880;9.276;2022-10-31T04:31:04;84.50;;;79.13;;
16308;SDS011;8263;48.880;9.276;2022-10-31T04:33:31;85.18;;;79.78;;
16308;SDS011;8263;48.880;9.276;2022-10-31T04:35:57;85.03;;;79.55;;
16308;SDS011;8263;48.880;9.276;2022-10-31T04:38:24;86.10;;;80.57;;
16308;SDS011;8263;48.880;9.276;2022-10-31T04:40:50;87.07;;;81.43;;
16308;SDS011;8263;48.880;9.276;2022-10-31T04:43:17;88.15;;;82.50;;
16308;SDS011;8263;48.880;9.276;2022-10-31T04:45:45;85.97;;;80.45;;
16308;SDS011;8263;48.880;9.276;2022-10-31T04:48:11;86.30;;;80.80;;
16308;SDS011;8263;48.880;9.276;2022-10-31T04:50:38;88.10;;;82.45;;
16308;SDS011;8263;48.880;9.276;2022-10-31T04:53:04;87.55;;;81.95;;
16308;SDS011;8263;48.880;9.276;2022-10-31T04:55:31;86.28;;;80.78;;
16308;SDS011;8263;48.880;9.276;2022-10-31T04:57:57;85.57;;;80.18;;
16308;SDS011;8263;48.880;9.276;2022-10-31T05:00:24;87.57;;;81.88;;
16308;SDS011;8263;48.880;9.276;2022-10-31T05:02:52;87.07;;;81.47;;
16308;SDS011;8263;48.880;9.276;2022-10-31T05:05:20;86.07;;;80.57;;
16308;SDS011;8263;48.880;9.276;2022-10-31T05:07:47;85.78;;;80.10;;
16308;SDS011;8263;48.880;9.276;2022-10-31T05:10:14;88.53;;;82.90;;
16308;SDS011;8263;48.880;9.276;2022-10-31T05:12:45;87.20;;;81.60;;
16308;SDS011;8263;48.880;9.276;2022-10-31T05:15:12;85.82;;;80.22;;
16308;SDS011;8263;48.880;9.276;2022-10-31T05:17:38;87.25;;;81.55;;
16308;SDS011;8263;48.880;9.276;2022-10-31T05:20:07;85.40;;;79.90;;
16308;SDS011;8263;48.880;9.276;2022-10-31T05:22:33;87.72;;;81.93;;
16308;SDS011;8263;48.880;9.276;2022-10-31T05:25:00;87.45;;;81.85;;
16308;SDS011;8263;48.880;9.276;2022-10-31T05:27:26;84.90;;;79.35;;
16308;SDS011;8263;48.880;9.276;2022-10-31T05:29:53;88.80;;;83.20;;
16308;SDS011;8263;48.880;9.276;2022-10-31T05:32:19;86.22;;;80.70;;
16308;SDS011;8263;48.880;9.276;2022-10-31T05:34:46;87.07;;;81.00;;
16308;SDS011;8263;48.880;9.276;2022-10-31T05:37:14;88.70;;;82.90;;
16308;SDS011;8263;48.880;9.276;2022-10-31T05:39:40;88.80;;;82.90;;
16308;SDS011;8263;48.880;9.276;2022-10-31T05:42:06;86.43;;;80.82;;
16308;SDS011;8263;48.880;9.276;2022-10-31T05:44:33;85.80;;;80.28;;
16308;SDS011;8263;48.880;9.276;2022-10-31T05:46:59;89.88;;;82.82;;
16308;SDS011;8263;48.880;9.276;2022-10-31T05:49:26;88.00;;;82.40;;
16308;SDS011;8263;48.880;9.276;2022-10-31T05:51:53;88.28;;;82.45;;
16308;SDS011;8263;48.880;9.276;2022-10-31T05:54:21;88.78;;;83.05;;
16308;SDS011;8263;48.880;9.276;2022-10-31T05:56:47;87.60;;;82.03;;
16308;SDS011;8263;48.880;9.276;2022-10-31T05:59:14;89.18;;;83.50;;
16308;SDS011;8263;48.880;9.276;2022-10-31T06:01:40;88.97;;;83.22;;
16308;SDS011;8263;48.880;9.276;2022-10-31T06:04:07;89.13;;;83.35;;
16308;SDS011;8263;48.880;9.276;2022-10-31T06:06:33;88.55;;;82.45;;
16308;SDS011;8263;48.880;9.276;2022-10-31T06:08:59;89.35;;;83.65;;
16308;SDS011;8263;48.880;9.276;2022-10-31T06:11:27;86.93;;;81.32;;
16308;SDS011;8263;48.880;9.276;2022-10-31T06:13:54;90.85;;;85.03;;
16308;SDS011;8263;48.880;9.276;2022-10-31T06:16:20;90.28;;;84.53;;
16308;SDS011;8263;48.880;9.276;2022-10-31T06:18:47;87.22;;;81.63;;
16308;SDS011;8263;48.880;9.276;2022-10-31T06:21:13;91.40;;;85.30;;
16308;SDS011;8263;48.880;9.276;2022-10-31T06:23:40;87.60;;;82.03;;
16308;SDS011;8263;48.880;9.276;2022-10-31T06:26:06;90.15;;;84.35;;
16308;SDS011;8263;48.880;9.276;2022-10-31T06:28:34;89.50;;;83.80;;
16308;SDS011;8263;48.880;9.276;2022-10-31T06:31:01;90.47;;;84.55;;
16308;SDS011;8263;48.880;9.276;2022-10-31T06:33:27;88.88;;;83.20;;
16308;SDS011;8263;48.880;9.276;2022-10-31T06:35:54;89.00;;;83.30;;
16308;SDS011;8263;48.880;9.276;2022-10-31T06:38:20;90.53;;;84.63;;
16308;SDS011;8263;48.880;9.276;2022-10-31T06:40:46;89.90;;;84.07;;
16308;SDS011;8263;48.880;9.276;2022-10-31T06:43:13;91.32;;;85.53;;
16308;SDS011;8263;48.880;9.276;2022-10-31T06:45:41;90.15;;;84.25;;
16308;SDS011;8263;48.880;9.276;2022-10-31T06:48:08;91.47;;;85.28;;
16308;SDS011;8263;48.880;9.276;2022-10-31T06:50:34;89.13;;;83.43;;
16308;SDS011;8263;48.880;9.276;2022-10-31T06:53:00;91.85;;;85.85;;
16308;SDS011;8263;48.880;9.276;2022-10-31T06:55:27;88.00;;;82.38;;
16308;SDS011;8263;48.880;9.276;2022-10-31T06:57:54;87.82;;;82.22;;
16308;SDS011;8263;48.880;9.276;2022-10-31T07:00:20;91.80;;;85.85;;
16308;SDS011;8263;48.880;9.276;2022-10-31T07:02:58;92.03;;;86.13;;
16308;SDS011;8263;48.880;9.276;2022-10-31T07:05:25;91.22;;;85.32;;
16308;SDS011;8263;48.880;9.276;2022-10-31T07:07:52;92.35;;;86.45;;
16308;SDS011;8263;48.880;9.276;2022-10-31T07:10:18;88.63;;;82.95;;
16308;SDS011;8263;48.880;9.276;2022-10-31T07:12:45;91.05;;;85.05;;
16308;SDS011;8263;48.880;9.276;2022-10-31T07:15:12;91.20;;;85.30;;
16308;SDS011;8263;48.880;9.276;2022-10-31T07:17:38;92.30;;;86.30;;
16308;SDS011;8263;48.880;9.276;2022-10-31T07:20:07;90.70;;;84.88;;
16308;SDS011;8263;48.880;9.276;2022-10-31T07:22:34;90.22;;;84.43;;
16308;SDS011;8263;48.880;9.276;2022-10-31T07:25:01;90.30;;;84.30;;
16308;SDS011;8263;48.880;9.276;2022-10-31T07:27:27;89.85;;;84.05;;
16308;SDS011;8263;48.880;9.276;2022-10-31T07:29:54;90.97;;;85.18;;
16308;SDS011;8263;48.880;9.276;2022-10-31T07:32:20;91.82;;;85.93;;
16308;SDS011;8263;48.880;9.276;2022-10-31T07:34:47;90.60;;;84.63;;
16308;SDS011;8263;48.880;9.276;2022-10-31T07:37:15;92.93;;;86.93;;
16308;SDS011;8263;48.880;9.276;2022-10-31T07:39:41;92.75;;;86.60;;
16308;SDS011;8263;48.880;9.276;2022-10-31T07:42:08;90.65;;;84.85;;
16308;SDS011;8263;48.880;9.276;2022-10-31T07:44:34;93.05;;;87.13;;
16308;SDS011;8263;48.880;9.276;2022-10-31T07:47:01;90.18;;;84.28;;
16308;SDS011;8263;48.880;9.276;2022-10-31T07:49:27;91.97;;;86.05;;
16308;SDS011;8263;48.880;9.276;2022-10-31T07:51:54;93.00;;;86.75;;
16308;SDS011;8263;48.880;9.276;2022-10-31T07:54:22;92.88;;;86.78;;
16308;SDS011;8263;48.880;9.276;2022-10-31T07:56:48;92.95;;;86.93;;
16308;SDS011;8263;48.880;9.276;2022-10-31T07:59:15;94.65;;;88.07;;
16308;SDS011;8263;48.880;9.276;2022-10-31T08:01:42;93.05;;;87.00;;
16308;SDS011;8263;48.880;9.276;2022-10-31T08:04:08;91.68;;;85.80;;
16308;SDS011;8263;48.880;9.276;2022-10-31T08:06:35;91.20;;;85.13;;
16308;SDS011;8263;48.880;9.276;2022-10-31T08:09:01;90.45;;;84.50;;
16308;SDS011;8263;48.880;9.276;2022-10-31T08:11:29;89.95;;;83.95;;
16308;SDS011;8263;48.880;9.276;2022-10-31T08:13:56;89.72;;;83.95;;
16308;SDS011;8263;48.880;9.276;2022-10-31T08:16:22;90.28;;;84.50;;
16308;SDS011;8263;48.880;9.276;2022-10-31T08:18:49;89.32;;;83.53;;
16308;SDS011;8263;48.880;9.276;2022-10-31T08:21:15;91.35;;;85.47;;
16308;SDS011;8263;48.880;9.276;2022-10-31T08:23:42;89.35;;;83.57;;
16308;SDS011;8263;48.880;9.276;2022-10-31T08:26:08;91.65;;;85.72;;
16308;SDS011;8263;48.880;9.276;2022-10-31T08:28:36;93.40;;;87.30;;
16308;SDS011;8263;48.880;9.276;2022-10-31T08:31:03;92.20;;;86.18;;
16308;SDS011;8263;48.880;9.276;2022-10-31T08:33:31;91.75;;;84.57;;
16308;SDS011;8263;48.880;9.276;2022-10-31T08:35:57;86.80;;;81.15;;
16308;SDS011;8263;48.880;9.276;2022-10-31T08:38:24;89.32;;;82.72;;
16308;SDS011;8263;48.880;9.276;2022-10-31T08:40:50;86.43;;;80.85;;
16308;SDS011;8263;48.880;9.276;2022-10-31T08:43:17;86.75;;;81.18;;
16308;SDS011;8263;48.880;9.276;2022-10-31T08:45:47;86.40;;;80.80;;
16308;SDS011;8263;48.880;9.276;2022-10-31T08:48:14;87.65;;;82.00;;
16308;SDS011;8263;48.880;9.276;2022-10-31T08:50:42;84.72;;;79.13;;
16308;SDS011;8263;48.880;9.276;2022-10-31T08:53:11;87.55;;;81.78;;
16308;SDS011;8263;48.880;9.276;2022-10-31T08:55:38;87.03;;;81.18;;
16308;SDS011;8263;48.880;9.276;2022-10-31T08:58:05;86.72;;;81.03;;
16308;SDS011;8263;48.880;9.276;2022-10-31T09:00:31;86.22;;;80.57;;
16308;SDS011;8263;48.880;9.276;2022-10-31T09:03:00;87.22;;;81.60;;
16308;SDS011;8263;48.880;9.276;2022-10-31T09:05:27;88.75;;;82.93;;
16308;SDS011;8263;48.880;9.276;2022-10-31T09:07:54;87.47;;;81.88;;
16308;SDS011;8263;48.880;9.276;2022-10-31T09:10:21;86.00;;;80.40;;
16308;SDS011;8263;48.880;9.276;2022-10-31T09:12:47;86.57;;;80.93;;
16308;SDS011;8263;48.880;9.276;2022-10-31T09:15:20;86.60;;;81.00;;
16308;SDS011;8263;48.880;9.276;2022-10-31T09:17:47;86.22;;;80.63;;
16308;SDS011;8263;48.880;9.276;2022-10-31T09:20:15;87.30;;;81.60;;
16308;SDS011;8263;48.880;9.276;2022-10-31T09:22:42;86.68;;;81.03;;
16308;SDS011;8263;48.880;9.276;2022-10-31T09:25:08;86.47;;;80.57;;
16308;SDS011;8263;48.880;9.276;2022-10-31T09:27:35;85.38;;;79.88;;
16308;SDS011;8263;48.880;9.276;2022-10-31T09:30:01;87.82;;;82.18;;
16308;SDS011;8263;48.880;9.276;2022-10-31T09:32:28;87.72;;;81.38;;
16308;SDS011;8263;48.880;9.276;2022-10-31T09:34:54;87.40;;;81.50;;
16308;SDS011;8263;48.880;9.276;2022-10-31T09:37:22;86.40;;;80.80;;
16308;SDS011;8263;48.880;9.276;2022-10-31T09:39:49;87.90;;;82.28;;
16308;SDS011;8263;48.880;9.276;2022-10-31T09:42:28;87.45;;;81.75;;
16308;SDS011;8263;48.880;9.276;2022-10-31T09:45:01;87.90;;;81.70;;
16308;SDS011;8263;48.880;9.276;2022-10-31T09:47:33;84.93;;;79.32;;
16308;SDS011;8263;48.880;9.276;2022-10-31T09:50:06;88.97;;;82.43;;
16308;SDS011;8263;48.880;9.276;2022-10-31T09:52:38;86.07;;;80.43;;
16308;SDS011;8263;48.880;9.276;2022-10-31T09:55:08;87.05;;;81.40;;
16308;SDS011;8263;48.880;9.276;2022-10-31T09:57:39;85.38;;;79.88;;
16308;SDS011;8263;48.880;9.276;2022-10-31T10:00:10;84.55;;;78.85;;
16308;SDS011;8263;48.880;9.276;2022-10-31T10:02:42;83.07;;;77.57;;
16308;SDS011;8263;48.880;9.276;2022-10-31T10:05:10;85.15;;;79.55;;
16308;SDS011;8263;48.880;9.276;2022-10-31T10:07:40;83.82;;;78.20;;
16308;SDS011;8263;48.880;9.276;2022-10-31T10:10:13;84.13;;;78.72;;
16308;SDS011;8263;48.880;9.276;2022-10-31T10:12:42;83.75;;;78.05;;
16308;SDS011;8263;48.880;9.276;2022-10-31T10:15:26;82.55;;;77.15;;
16308;SDS011;8263;48.880;9.276;2022-10-31T10:17:56;83.57;;;78.18;;
16308;SDS011;8263;48.880;9.276;2022-10-31T10:20:29;84.80;;;79.22;;
16308;SDS011;8263;48.880;9.276;2022-10-31T10:23:02;82.85;;;77.15;;
16308;SDS011;8263;48.880;9.276;2022-10-31T10:25:34;82.00;;;76.68;;
16308;SDS011;8263;48.880;9.276;2022-10-31T10:28:07;84.05;;;78.32;;
16308;SDS011;8263;48.880;9.276;2022-10-31T10:30:38;82.55;;;77.03;;
16308;SDS011;8263;48.880;9.276;2022-10-31T10:33:09;83.90;;;78.35;;
16308;SDS011;8263;48.880;9.276;2022-10-31T10:35:38;83.05;;;77.72;;
16308;SDS011;8263;48.880;9.276;2022-10-31T10:38:10;80.30;;;75.10;;
16308;SDS011;8263;48.880;9.276;2022-10-31T10:40:39;80.00;;;74.80;;
16308;SDS011;8263;48.880;9.276;2022-10-31T10:43:12;80.70;;;75.50;;
16308;SDS011;8263;48.880;9.276;2022-10-31T10:45:44;81.10;;;75.60;;
16308;SDS011;8263;48.880;9.276;2022-10-31T10:48:30;81.00;;;75.63;;
16308;SDS011;8263;48.880;9.276;2022-10-31T10:50:59;81.32;;;75.90;;
16308;SDS011;8263;48.880;9.276;2022-10-31T10:53:34;79.97;;;74.68;;
16308;SDS011;8263;48.880;9.276;2022-10-31T10:56:06;77.65;;;72.15;;
16308;SDS011;8263;48.880;9.276;2022-10-31T10:58:35;80.95;;;75.65;;
16308;SDS011;8263;48.880;9.276;2022-10-31T11:01:08;79.50;;;74.30;;
16308;SDS011;8263;48.880;9.276;2022-10-31T11:03:36;75.22;;;70.22;;
16308;SDS011;8263;48.880;9.276;2022-10-31T11:06:04;78.18;;;72.97;;
16308;SDS011;8263;48.880;9.276;2022-10-31T11:08:33;77.20;;;72.20;;
16308;SDS011;8263;48.880;9.276;2022-10-31T11:11:00;79.25;;;73.97;;
16308;SDS011;8263;48.880;9.276;2022-10-31T11:13:28;75.63;;;70.72;;
16308;SDS011;8263;48.880;9.276;2022-10-31T11:15:56;77.13;;;71.90;;
16308;SDS011;8263;48.880;9.276;2022-10-31T11:18:23;78.15;;;72.95;;
16308;SDS011;8263;48.880;9.276;2022-10-31T11:20:51;76.50;;;71.60;;
16308;SDS011;8263;48.880;9.276;2022-10-31T11:23:19;77.70;;;72.70;;
16308;SDS011;8263;48.880;9.276;2022-10-31T11:25:50;78.40;;;73.20;;
16308;SDS011;8263;48.880;9.276;2022-10-31T11:28:18;77.40;;;72.40;;
16308;SDS011;8263;48.880;9.276;2022-10-31T11:30:45;76.00;;;71.00;;
16308;SDS011;8263;48.880;9.276;2022-10-31T11:33:14;78.50;;;73.30;;
16308;SDS011;8263;48.880;9.276;2022-10-31T11:35:42;76.38;;;71.18;;
16308;SDS011;8263;48.880;9.276;2022-10-31T11:38:12;75.35;;;70.45;;
16308;SDS011;8263;48.880;9.276;2022-10-31T11:40:51;75.90;;;70.65;;
16308;SDS011;8263;48.880;9.276;2022-10-31T11:43:18;75.47;;;70.00;;
16308;SDS011;8263;48.880;9.276;2022-10-31T11:45:45;73.63;;;68.82;;
16308;SDS011;8263;48.880;9.276;2022-10-31T11:48:14;77.65;;;72.53;;
16308;SDS011;8263;48.880;9.276;2022-10-31T11:50:41;72.68;;;67.90;;
16308;SDS011;8263;48.880;9.276;2022-10-31T11:53:11;75.78;;;70.82;;
16308;SDS011;8263;48.880;9.276;2022-10-31T11:55:39;74.65;;;69.57;;
16308;SDS011;8263;48.880;9.276;2022-10-31T11:58:19;76.13;;;71.18;;
16308;SDS011;8263;48.880;9.276;2022-10-31T12:00:48;74.70;;;69.60;;
16308;SDS011;8263;48.880;9.276;2022-10-31T12:03:19;74.47;;;69.45;;
16308;SDS011;8263;48.880;9.276;2022-10-31T12:05:51;75.63;;;70.68;;
16308;SDS011;8263;48.880;9.276;2022-10-31T12:08:20;73.78;;;68.88;;
16308;SDS011;8263;48.880;9.276;2022-10-31T12:10:49;76.72;;;71.47;;
16308;SDS011;8263;48.880;9.276;2022-10-31T12:13:24;71.63;;;66.88;;
16308;SDS011;8263;48.880;9.276;2022-10-31T12:15:55;72.65;;;67.60;;
16308;SDS011;8263;48.880;9.276;2022-10-31T12:18:29;72.95;;;67.38;;
16308;SDS011;8263;48.880;9.276;2022-10-31T12:21:02;69.22;;;64.72;;
16308;SDS011;8263;48.880;9.276;2022-10-31T12:23:33;72.43;;;67.60;;
16308;SDS011;8263;48.880;9.276;2022-10-31T12:26:04;72.45;;;67.47;;
16308;SDS011;8263;48.880;9.276;2022-10-31T12:31:23;73.03;;;67.55;;
16308;SDS011;8263;48.880;9.276;2022-10-31T12:33:53;71.82;;;67.07;;
16308;SDS011;8263;48.880;9.276;2022-10-31T12:36:26;70.90;;;66.30;;
16308;SDS011;8263;48.880;9.276;2022-10-31T12:39:02;68.78;;;64.32;;
16308;SDS011;8263;48.880;9.276;2022-10-31T12:41:36;68.30;;;63.80;;
16308;SDS011;8263;48.880;9.276;2022-10-31T12:44:06;71.25;;;66.13;;
16308;SDS011;8263;48.880;9.276;2022-10-31T12:46:48;71.57;;;66.90;;
16308;SDS011;8263;48.880;9.276;2022-10-31T12:49:27;71.03;;;66.30;;
16308;SDS011;8263;48.880;9.276;2022-10-31T12:52:00;70.22;;;65.07;;
16308;SDS011;8263;48.880;9.276;2022-10-31T12:54:32;67.20;;;62.88;;
16308;SDS011;8263;48.880;9.276;2022-10-31T12:57:05;66.82;;;62.35;;
16308;SDS011;8263;48.880;9.276;2022-10-31T12:59:35;67.97;;;63.30;;
16308;SDS011;8263;48.880;9.276;2022-10-31T13:02:06;70.10;;;65.40;;
16308;SDS011;8263;48.880;9.276;2022-10-31T13:04:38;66.97;;;62.38;;
16308;SDS011;8263;48.880;9.276;2022-10-31T13:07:08;67.20;;;62.53;;
16308;SDS011;8263;48.880;9.276;2022-10-31T13:09:37;69.72;;;64.80;;
16308;SDS011;8263;48.880;9.276;2022-10-31T13:12:07;68.47;;;63.97;;
16308;SDS011;8263;48.880;9.276;2022-10-31T13:14:35;67.38;;;62.92;;
16308;SDS011;8263;48.880;9.276;2022-10-31T13:17:04;66.43;;;62.03;;
16308;SDS011;8263;48.880;9.276;2022-10-31T13:19:33;66.53;;;62.17;;
16308;SDS011;8263;48.880;9.276;2022-10-31T13:22:02;64.18;;;59.90;;
16308;SDS011;8263;48.880;9.276;2022-10-31T13:24:31;66.78;;;62.15;;
16308;SDS011;8263;48.880;9.276;2022-10-31T13:27:02;67.65;;;63.25;;
16308;SDS011;8263;48.880;9.276;2022-10-31T13:29:30;64.22;;;60.03;;
16308;SDS011;8263;48.880;9.276;2022-10-31T13:31:59;67.53;;;63.03;;
16308;SDS011;8263;48.880;9.276;2022-10-31T13:34:28;68.05;;;63.33;;
16308;SDS011;8263;48.880;9.276;2022-10-31T13:36:58;69.18;;;64.55;;
16308;SDS011;8263;48.880;9.276;2022-10-31T13:39:29;65.30;;;61.00;;
16308;SDS011;8263;48.880;9.276;2022-10-31T13:41:59;68.07;;;63.58;;
16308;SDS011;8263;48.880;9.276;2022-10-31T13:44:28;65.93;;;61.10;;
16308;SDS011;8263;48.880;9.276;2022-10-31T13:46:56;64.18;;;59.97;;
16308;SDS011;8263;48.880;9.276;2022-10-31T13:49:37;64.10;;;59.92;;
16308;SDS011;8263;48.880;9.276;2022-10-31T13:52:17;62.33;;;58.22;;
16308;SDS011;8263;48.880;9.276;2022-10-31T13:54:48;64.03;;;59.72;;
16308;SDS011;8263;48.880;9.276;2022-10-31T13:57:22;65.93;;;61.53;;
16308;SDS011;8263;48.880;9.276;2022-10-31T13:59:51;66.40;;;61.90;;
16308;SDS011;8263;48.880;9.276;2022-10-31T14:02:19;67.43;;;62.67;;
16308;SDS011;8263;48.880;9.276;2022-10-31T14:04:50;65.82;;;61.33;;
16308;SDS011;8263;48.880;9.276;2022-10-31T14:07:18;64.28;;;59.83;;
16308;SDS011;8263;48.880;9.276;2022-10-31T14:09:50;65.93;;;61.30;;
16308;SDS011;8263;48.880;9.276;2022-10-31T14:12:22;64.60;;;60.30;;
16308;SDS011;8263;48.880;9.276;2022-10-31T14:14:51;65.20;;;60.80;;
16308;SDS011;8263;48.880;9.276;2022-10-31T14:17:20;64.00;;;59.25;;
16308;SDS011;8263;48.880;9.276;2022-10-31T14:19:59;65.20;;;60.65;;
16308;SDS011;8263;48.880;9.276;2022-10-31T14:22:31;63.13;;;58.90;;
16308;SDS011;8263;48.880;9.276;2022-10-31T14:24:58;66.55;;;62.05;;
16308;SDS011;8263;48.880;9.276;2022-10-31T14:27:35;64.57;;;60.30;;
16308;SDS011;8263;48.880;9.276;2022-10-31T14:30:14;65.47;;;61.08;;
16308;SDS011;8263;48.880;9.276;2022-10-31T14:32:40;64.85;;;60.55;;
16308;SDS011;8263;48.880;9.276;2022-10-31T14:35:12;63.75;;;59.50;;
16308;SDS011;8263;48.880;9.276;2022-10-31T14:37:55;64.30;;;60.03;;
16308;SDS011;8263;48.880;9.276;2022-10-31T14:46:33;65.38;;;61.00;;
16308;SDS011;8263;48.880;9.276;2022-10-31T14:49:07;63.38;;;59.13;;
16308;SDS011;8263;48.880;9.276;2022-10-31T14:51:41;64.05;;;59.65;;
16308;SDS011;8263;48.880;9.276;2022-10-31T14:54:11;63.17;;;58.75;;
16308;SDS011;8263;48.880;9.276;2022-10-31T14:56:46;61.42;;;56.85;;